createdAt,value
2022-10-19T00:00:29.925Z,9.75
2022-10-19T00:02:56.316Z,8.30
2022-10-19T00:05:22.676Z,8.27
2022-10-19T00:07:49.037Z,8.88
2022-10-19T00:10:15.537Z,8.35
2022-10-19T00:12:42.038Z,11.25
2022-10-19T00:15:08.768Z,10.23
2022-10-19T00:17:35.697Z,8.93
2022-10-19T00:20:02.331Z,14.88
2022-10-19T00:22:28.790Z,13.60
2022-10-19T00:24:57.784Z,7.13
2022-10-19T00:27:24.196Z,7.40
2022-10-19T00:29:50.569Z,11.45
2022-10-19T00:32:16.958Z,7.25
2022-10-19T00:34:43.392Z,10.90
2022-10-19T00:37:09.772Z,8.30
2022-10-19T00:39:36.234Z,12.80
2022-10-19T00:42:02.617Z,9.43
2022-10-19T00:44:29.012Z,9.63
2022-10-19T00:47:00.834Z,7.63
2022-10-19T00:49:33.336Z,9.48
2022-10-19T00:52:04.412Z,10.45
2022-10-19T00:54:36.363Z,6.93
2022-10-19T00:57:04.257Z,8.35
2022-10-19T00:59:31.986Z,7.97
2022-10-19T01:01:59.350Z,7.50
2022-10-19T01:04:27.775Z,11.45
2022-10-19T01:06:54.911Z,9.82
2022-10-19T01:09:21.330Z,8.57
2022-10-19T01:12:07.431Z,12.57
2022-10-19T01:14:33.816Z,6.47
2022-10-19T01:17:27.846Z,13.95
2022-10-19T01:22:39.464Z,7.80
2022-10-19T01:25:11.793Z,11.68
2022-10-19T01:28:01.558Z,9.05
2022-10-19T01:31:04.580Z,10.68
2022-10-19T01:33:35.182Z,6.05
2022-10-19T01:36:26.185Z,8.25
2022-10-19T01:39:33.525Z,10.30
2022-10-19T01:42:11.972Z,14.05
2022-10-19T01:44:57.604Z,8.63
2022-10-19T01:47:33.565Z,10.13
2022-10-19T01:50:08.494Z,9.40
2022-10-19T01:52:37.865Z,9.25
2022-10-19T01:55:04.963Z,7.00
2022-10-19T01:57:35.958Z,9.52
2022-10-19T02:00:07.465Z,10.05
2022-10-19T02:02:46.459Z,8.98
2022-10-19T02:05:13.987Z,12.07
2022-10-19T02:07:45.626Z,10.02
2022-10-19T02:10:12.075Z,8.45
2022-10-19T02:12:40.137Z,6.35
2022-10-19T02:15:12.509Z,8.68
2022-10-19T02:17:44.549Z,14.75
2022-10-19T02:20:11.248Z,9.90
2022-10-19T02:22:37.757Z,7.43
2022-10-19T02:25:04.861Z,9.80
2022-10-19T02:27:31.257Z,8.77
2022-10-19T02:29:57.731Z,8.68
2022-10-19T02:32:24.201Z,10.20
2022-10-19T02:34:50.645Z,12.35
2022-10-19T02:37:19.868Z,7.28
2022-10-19T02:39:48.496Z,8.10
2022-10-19T02:42:26.125Z,9.38
2022-10-19T02:45:00.010Z,12.98
2022-10-19T02:47:33.705Z,9.95
2022-10-19T02:50:01.059Z,7.88
2022-10-19T02:52:27.428Z,7.82
2022-10-19T02:54:53.837Z,14.35
2022-10-19T02:57:23.405Z,9.95
2022-10-19T02:59:50.462Z,8.73
2022-10-19T03:02:18.016Z,6.65
2022-10-19T03:04:45.147Z,10.07
2022-10-19T03:07:14.666Z,12.32
2022-10-19T03:09:42.028Z,10.85
2022-10-19T03:12:08.602Z,8.85
2022-10-19T03:14:34.995Z,14.05
2022-10-19T03:17:01.801Z,10.32
2022-10-19T03:19:28.251Z,10.60
2022-10-19T03:21:54.745Z,14.35
2022-10-19T03:24:22.170Z,9.05
2022-10-19T03:26:48.941Z,12.05
2022-10-19T03:29:15.390Z,15.18
2022-10-19T03:31:41.881Z,12.00
2022-10-19T03:34:08.291Z,11.35
2022-10-19T03:36:36.957Z,8.32
2022-10-19T03:39:06.791Z,13.27
2022-10-19T03:41:35.583Z,11.88
2022-10-19T03:44:02.454Z,14.05
2022-10-19T03:46:29.081Z,12.82
2022-10-19T03:48:55.475Z,11.90
2022-10-19T03:51:27.103Z,12.90
2022-10-19T03:53:59.239Z,15.55
2022-10-19T03:56:27.464Z,10.60
2022-10-19T03:58:55.961Z,11.55
2022-10-19T04:01:28.919Z,11.82
2022-10-19T04:04:00.722Z,13.18
2022-10-19T04:06:29.969Z,12.85
2022-10-19T04:08:56.929Z,10.48
2022-10-19T04:11:29.145Z,8.63
2022-10-19T04:13:57.124Z,13.25
2022-10-19T04:16:24.818Z,11.32
2022-10-19T04:18:51.564Z,10.50
2022-10-19T04:21:26.251Z,13.63
2022-10-19T04:23:56.765Z,16.30
2022-10-19T04:26:23.795Z,15.15
2022-10-19T04:28:50.331Z,10.68
2022-10-19T04:31:16.761Z,14.00
2022-10-19T04:33:43.205Z,13.68
2022-10-19T04:36:11.916Z,9.85
2022-10-19T04:38:39.194Z,13.60
2022-10-19T04:41:11.617Z,9.45
2022-10-19T04:43:38.490Z,9.27
2022-10-19T04:46:10.302Z,9.73
2022-10-19T04:48:38.299Z,10.35
2022-10-19T04:51:05.126Z,15.68
2022-10-19T04:53:32.590Z,10.93
2022-10-19T04:55:58.994Z,11.00
2022-10-19T04:58:25.428Z,13.63
2022-10-19T05:00:51.845Z,12.93
2022-10-19T05:03:18.458Z,10.90
2022-10-19T05:05:44.846Z,12.32
2022-10-19T05:08:11.524Z,12.10
2022-10-19T05:10:38.210Z,16.33
2022-10-19T05:13:05.207Z,11.65
2022-10-19T05:15:32.101Z,10.32
2022-10-19T05:17:58.508Z,10.38
2022-10-19T05:20:24.885Z,11.18
2022-10-19T05:22:51.747Z,11.25
2022-10-19T05:25:18.198Z,12.20
2022-10-19T05:27:44.644Z,11.15
2022-10-19T05:30:11.250Z,13.88
2022-10-19T05:32:37.617Z,10.70
2022-10-19T05:35:04.266Z,14.32
2022-10-19T05:37:30.728Z,14.02
2022-10-19T05:39:57.233Z,10.00
2022-10-19T05:42:23.599Z,11.25
2022-10-19T05:44:50.035Z,9.95
2022-10-19T05:47:16.397Z,12.10
2022-10-19T05:49:42.778Z,12.98
2022-10-19T05:52:09.139Z,12.05
2022-10-19T05:54:36.825Z,13.60
2022-10-19T05:57:03.350Z,12.55
2022-10-19T05:59:29.744Z,12.10
2022-10-19T06:01:56.163Z,13.73
2022-10-19T06:04:22.550Z,11.95
2022-10-19T06:06:48.924Z,12.57
2022-10-19T06:09:15.363Z,13.48
2022-10-19T06:11:42.740Z,14.52
2022-10-19T06:14:13.627Z,16.60
2022-10-19T06:16:40.048Z,11.35
2022-10-19T06:19:06.597Z,15.98
2022-10-19T06:21:34.226Z,15.20
2022-10-19T06:24:03.446Z,13.05
2022-10-19T06:26:32.202Z,13.93
2022-10-19T06:29:00.692Z,15.75
2022-10-19T06:31:32.536Z,21.88
2022-10-19T06:33:59.018Z,19.83
2022-10-19T06:36:28.389Z,15.20
2022-10-19T06:38:56.453Z,15.25
2022-10-19T06:41:23.475Z,15.57
2022-10-19T06:43:54.045Z,19.38
2022-10-19T06:46:23.241Z,17.02
2022-10-19T06:49:00.662Z,14.38
2022-10-19T06:51:28.892Z,16.83
2022-10-19T06:53:57.017Z,16.20
2022-10-19T06:56:25.293Z,17.52
2022-10-19T06:58:52.173Z,19.75
2022-10-19T07:01:19.265Z,14.52
2022-10-19T07:03:46.271Z,17.45
2022-10-19T07:06:13.275Z,17.80
2022-10-19T07:08:41.570Z,20.48
2022-10-19T07:11:10.882Z,21.90
2022-10-19T07:13:37.377Z,21.80
2022-10-19T07:16:06.739Z,22.17
2022-10-19T07:18:37.094Z,25.17
2022-10-19T07:21:06.359Z,23.23
2022-10-19T07:23:35.129Z,21.02
2022-10-19T07:26:12.137Z,22.17
2022-10-19T07:28:40.789Z,18.55
2022-10-19T07:31:10.056Z,23.88
2022-10-19T07:33:36.741Z,26.05
2022-10-19T07:36:06.538Z,21.20
2022-10-19T07:38:34.356Z,22.08
2022-10-19T07:41:05.571Z,25.05
2022-10-19T07:43:32.395Z,23.02
2022-10-19T07:46:05.418Z,22.15
2022-10-19T07:48:32.332Z,27.58
2022-10-19T07:51:04.917Z,19.67
2022-10-19T07:53:31.490Z,23.03
2022-10-19T07:56:12.759Z,25.45
2022-10-19T07:58:39.610Z,23.90
2022-10-19T08:01:09.016Z,22.92
2022-10-19T08:04:31.682Z,29.00
2022-10-19T08:06:24.043Z,31.27
2022-10-19T08:08:52.827Z,23.83
2022-10-19T08:11:25.987Z,23.25
2022-10-19T08:13:53.425Z,26.27
2022-10-19T08:16:44.174Z,25.70
2022-10-19T08:19:13.482Z,23.17
2022-10-19T08:21:42.548Z,23.80
2022-10-19T08:24:09.985Z,26.05
2022-10-19T08:26:38.254Z,28.77
2022-10-19T08:29:07.909Z,30.13
2022-10-19T08:31:34.748Z,23.63
2022-10-19T08:34:01.278Z,24.58
2022-10-19T08:36:31.051Z,30.27
2022-10-19T08:38:57.550Z,28.15
2022-10-19T08:41:51.991Z,24.60
2022-10-19T08:44:39.314Z,30.98
2022-10-19T08:47:23.214Z,28.15
2022-10-19T08:49:50.308Z,26.88
2022-10-19T08:52:24.274Z,30.98
2022-10-19T08:55:00.852Z,26.95
2022-10-19T08:58:14.370Z,27.13
2022-10-19T09:00:54.662Z,27.58
2022-10-19T09:04:00.792Z,20.60
2022-10-19T09:06:27.156Z,18.00
2022-10-19T09:08:56.555Z,17.92
2022-10-19T09:11:27.263Z,20.05
2022-10-19T09:14:20.872Z,22.10
2022-10-19T09:16:47.479Z,22.13
2022-10-19T09:19:30.838Z,22.67
2022-10-19T09:22:07.595Z,18.00
2022-10-19T09:24:43.913Z,16.45
2022-10-19T09:27:23.862Z,17.52
2022-10-19T09:29:55.076Z,18.05
2022-10-19T09:32:30.897Z,15.13
2022-10-19T09:35:02.229Z,15.15
2022-10-19T09:40:01.331Z,13.97
2022-10-19T09:42:30.322Z,12.70
2022-10-19T09:44:59.087Z,9.45
2022-10-19T09:47:45.665Z,13.90
2022-10-19T09:50:19.835Z,9.88
2022-10-19T09:52:47.836Z,18.35
2022-10-19T09:55:14.172Z,11.25
2022-10-19T09:57:45.193Z,14.73
2022-10-19T10:00:26.066Z,14.13
2022-10-19T10:02:54.608Z,17.08
2022-10-19T10:05:31.653Z,12.98
2022-10-19T10:07:58.088Z,10.88
2022-10-19T10:10:30.574Z,12.23
2022-10-19T10:13:00.782Z,16.52
2022-10-19T10:15:35.163Z,14.77
2022-10-19T10:18:02.417Z,8.52
2022-10-19T10:20:32.282Z,10.52
2022-10-19T10:23:02.266Z,9.07
2022-10-19T10:25:32.161Z,9.73
2022-10-19T10:28:19.885Z,8.40
2022-10-19T10:30:48.326Z,9.18
2022-10-19T10:33:40.015Z,6.82
2022-10-19T10:36:08.544Z,6.70
2022-10-19T10:38:47.100Z,11.20
2022-10-19T10:41:20.122Z,9.90
2022-10-19T10:46:33.195Z,7.85
2022-10-19T10:49:05.576Z,8.10
2022-10-19T10:51:38.742Z,9.98
2022-10-19T10:54:20.285Z,10.55
2022-10-19T10:57:16.724Z,10.02
2022-10-19T11:00:07.672Z,9.60
2022-10-19T11:02:48.929Z,8.35
2022-10-19T11:05:22.771Z,4.80
2022-10-19T11:07:54.322Z,7.20
2022-10-19T11:10:28.124Z,7.00
2022-10-19T11:13:15.871Z,9.25
2022-10-19T11:15:54.110Z,8.05
2022-10-19T11:18:26.796Z,6.25
2022-10-19T11:21:09.371Z,4.40
2022-10-19T11:23:49.088Z,7.43
2022-10-19T11:26:41.322Z,6.57
2022-10-19T11:29:32.852Z,6.13
2022-10-19T11:31:59.584Z,5.93
2022-10-19T11:34:38.277Z,7.03
2022-10-19T11:37:28.125Z,4.90
2022-10-19T11:40:22.099Z,4.50
2022-10-19T11:43:06.899Z,7.18
2022-10-19T11:46:09.237Z,3.95
2022-10-19T11:49:10.828Z,5.10
2022-10-19T11:51:51.821Z,4.88
2022-10-19T11:54:55.871Z,3.22
2022-10-19T12:00:14.535Z,7.00
2022-10-19T12:03:15.223Z,7.93
2022-10-19T12:05:47.561Z,4.95
2022-10-19T12:08:32.980Z,8.73
2022-10-19T12:11:21.462Z,4.70
2022-10-19T12:13:52.905Z,4.97
2022-10-19T12:16:23.911Z,6.55
2022-10-19T12:18:55.436Z,9.20
2022-10-19T12:21:30.066Z,4.78
2022-10-19T12:24:03.670Z,4.53
2022-10-19T12:26:34.631Z,3.53
2022-10-19T12:29:05.988Z,4.28
2022-10-19T12:31:33.217Z,3.08
2022-10-19T12:34:21.518Z,3.75
2022-10-19T12:36:59.064Z,4.65
2022-10-19T12:39:39.574Z,4.78
2022-10-19T12:42:18.940Z,3.40
2022-10-19T12:45:18.750Z,5.90
2022-10-19T12:48:19.985Z,3.05
2022-10-19T12:50:49.078Z,5.18
2022-10-19T12:53:28.565Z,3.35
2022-10-19T12:56:25.109Z,4.38
2022-10-19T12:58:56.303Z,8.35
2022-10-19T13:01:43.877Z,5.78
2022-10-19T13:04:16.655Z,3.47
2022-10-19T13:06:46.692Z,6.45
2022-10-19T13:09:28.997Z,4.60
2022-10-19T13:12:16.449Z,4.25
2022-10-19T13:14:57.118Z,2.83
2022-10-19T13:17:40.663Z,4.18
2022-10-19T13:20:12.907Z,3.42
2022-10-19T13:22:42.218Z,3.07
2022-10-19T13:25:28.281Z,3.03
2022-10-19T13:28:17.653Z,5.57
2022-10-19T13:30:44.015Z,6.32
2022-10-19T13:33:25.419Z,3.65
2022-10-19T13:36:02.090Z,6.07
2022-10-19T13:41:19.294Z,6.20
2022-10-19T13:44:02.632Z,7.05
2022-10-19T13:46:28.972Z,4.03
2022-10-19T13:49:01.224Z,3.28
2022-10-19T13:51:41.697Z,5.97
2022-10-19T13:54:26.303Z,4.70
2022-10-19T13:57:13.188Z,5.25
2022-10-19T14:00:07.448Z,3.70
2022-10-19T14:02:54.623Z,7.55
2022-10-19T14:06:02.339Z,5.43
2022-10-19T14:09:07.016Z,7.18
2022-10-19T14:11:39.963Z,3.83
2022-10-19T14:14:07.301Z,5.07
2022-10-19T14:16:33.702Z,3.85
2022-10-19T14:19:00.424Z,3.67
2022-10-19T14:21:34.654Z,5.43
2022-10-19T14:24:01.141Z,3.58
2022-10-19T14:26:30.891Z,5.40
2022-10-19T14:28:59.365Z,4.80
2022-10-19T14:31:33.268Z,4.05
2022-10-19T14:34:02.461Z,2.88
2022-10-19T14:36:34.998Z,4.00
2022-10-19T14:39:02.241Z,6.82
2022-10-19T14:41:28.737Z,4.15
2022-10-19T14:43:56.843Z,4.43
2022-10-19T14:46:33.905Z,3.00
2022-10-19T14:49:03.146Z,4.15
2022-10-19T14:51:43.384Z,4.78
2022-10-19T14:54:18.790Z,7.10
2022-10-19T14:56:51.286Z,4.13
2022-10-19T14:59:52.785Z,4.38
2022-10-19T15:02:28.113Z,5.97
2022-10-19T15:04:58.488Z,4.25
2022-10-19T15:07:33.592Z,6.45
2022-10-19T15:10:03.653Z,5.32
2022-10-19T15:12:37.071Z,4.22
2022-10-19T15:15:15.079Z,3.63
2022-10-19T15:17:54.526Z,3.95
2022-10-19T15:20:43.908Z,6.15
2022-10-19T15:23:44.251Z,5.15
2022-10-19T15:26:19.248Z,5.88
2022-10-19T15:28:47.027Z,4.57
2022-10-19T15:31:20.679Z,8.48
2022-10-19T15:33:52.390Z,4.57
2022-10-19T15:36:21.282Z,6.75
2022-10-19T15:38:50.077Z,4.85
2022-10-19T15:41:25.160Z,7.53
2022-10-19T15:43:53.904Z,4.55
2022-10-19T15:46:34.069Z,4.43
2022-10-19T15:49:04.888Z,4.05
2022-10-19T15:51:34.213Z,5.28
2022-10-19T15:54:06.387Z,4.53
2022-10-19T15:56:38.233Z,4.82
2022-10-19T15:59:13.758Z,9.77
2022-10-19T16:01:40.566Z,5.43
2022-10-19T16:04:07.113Z,5.85
2022-10-19T16:06:36.455Z,4.97
2022-10-19T16:09:03.854Z,4.68
2022-10-19T16:11:32.191Z,3.10
2022-10-19T16:13:58.622Z,4.70
2022-10-19T16:16:30.762Z,5.32
2022-10-19T16:18:57.350Z,4.60
2022-10-19T16:21:27.994Z,4.45
2022-10-19T16:23:54.392Z,6.03
2022-10-19T16:26:21.361Z,4.93
2022-10-19T16:28:48.614Z,5.68
2022-10-19T16:31:15.645Z,9.48
2022-10-19T16:33:42.009Z,6.40
2022-10-19T16:36:09.385Z,7.15
2022-10-19T16:38:36.268Z,7.57
2022-10-19T16:41:07.814Z,6.38
2022-10-19T16:43:35.269Z,7.32
2022-10-19T16:46:02.503Z,6.68
2022-10-19T16:48:29.748Z,6.28
2022-10-19T16:51:05.314Z,5.45
2022-10-19T16:53:32.550Z,3.65
2022-10-19T16:56:07.595Z,3.08
2022-10-19T16:58:34.335Z,3.88
2022-10-19T17:01:32.595Z,6.72
2022-10-19T17:03:59.730Z,4.88
2022-10-19T17:06:27.151Z,5.28
2022-10-19T17:11:42.556Z,5.90
2022-10-19T17:14:11.864Z,4.85
2022-10-19T17:16:38.815Z,9.90
2022-10-19T17:19:06.956Z,5.85
2022-10-19T17:21:38.067Z,5.57
2022-10-19T17:24:07.000Z,5.53
2022-10-19T17:26:39.566Z,5.75
2022-10-19T17:29:06.539Z,4.27
2022-10-19T17:31:33.028Z,4.70
2022-10-19T17:34:00.678Z,7.10
2022-10-19T17:36:30.252Z,4.70
2022-10-19T17:39:00.502Z,2.72
2022-10-19T17:41:28.396Z,3.83
2022-10-19T17:43:55.049Z,6.88
2022-10-19T17:46:27.758Z,4.07
2022-10-19T17:48:54.522Z,5.38
2022-10-19T17:51:23.755Z,4.85
2022-10-19T17:53:51.054Z,3.92
2022-10-19T17:56:19.552Z,4.35
2022-10-19T17:58:46.484Z,4.05
2022-10-19T18:01:13.702Z,7.03
2022-10-19T18:03:40.202Z,5.32
2022-10-19T18:06:12.457Z,6.72
2022-10-19T18:08:41.307Z,4.60
2022-10-19T18:11:12.966Z,4.28
2022-10-19T18:13:40.472Z,5.13
2022-10-19T18:16:12.881Z,4.07
2022-10-19T18:18:41.258Z,5.85
2022-10-19T18:21:11.426Z,6.68
2022-10-19T18:23:38.122Z,4.07
2022-10-19T18:26:07.709Z,5.25
2022-10-19T18:28:34.767Z,5.13
2022-10-19T18:31:30.554Z,5.28
2022-10-19T18:34:02.412Z,5.03
2022-10-19T18:36:30.137Z,7.03
2022-10-19T18:38:58.903Z,8.18
2022-10-19T18:41:25.874Z,5.05
2022-10-19T18:44:04.868Z,3.45
2022-10-19T18:46:33.762Z,4.72
2022-10-19T18:49:01.229Z,7.40
2022-10-19T18:51:28.348Z,5.20
2022-10-19T18:53:55.049Z,5.18
2022-10-19T18:56:22.821Z,3.88
2022-10-19T18:58:49.437Z,6.63
2022-10-19T19:01:20.280Z,4.97
2022-10-19T19:03:49.753Z,6.55
2022-10-19T19:06:25.058Z,6.80
2022-10-19T19:08:55.311Z,8.15
2022-10-19T19:11:24.124Z,4.80
2022-10-19T19:13:56.745Z,7.88
2022-10-19T19:16:24.531Z,3.57
2022-10-19T19:18:51.352Z,5.80
2022-10-19T19:21:20.377Z,5.32
2022-10-19T19:23:47.901Z,5.82
2022-10-19T19:26:15.575Z,6.38
2022-10-19T19:28:43.506Z,4.80
2022-10-19T19:31:15.173Z,6.07
2022-10-19T19:33:43.035Z,5.75
2022-10-19T19:36:11.408Z,6.88
2022-10-19T19:38:37.801Z,4.45
2022-10-19T19:41:06.227Z,6.00
2022-10-19T19:43:34.813Z,8.00
2022-10-19T19:46:06.419Z,10.00
2022-10-19T19:48:36.562Z,6.97
2022-10-19T19:51:03.133Z,8.45
2022-10-19T19:53:29.542Z,9.88
2022-10-19T19:55:56.061Z,8.38
2022-10-19T19:58:22.453Z,7.63
2022-10-19T20:00:48.859Z,8.40
2022-10-19T20:03:15.737Z,8.68
2022-10-19T20:05:42.645Z,8.20
2022-10-19T20:08:09.934Z,5.88
2022-10-19T20:10:40.906Z,8.38
2022-10-19T20:13:07.604Z,7.30
2022-10-19T20:15:34.104Z,9.60
2022-10-19T20:18:00.466Z,9.82
2022-10-19T20:20:26.840Z,10.10
2022-10-19T20:22:53.402Z,7.07
2022-10-19T20:25:19.750Z,9.43
2022-10-19T20:27:46.141Z,9.48
2022-10-19T20:30:12.518Z,7.50
2022-10-19T20:32:39.129Z,8.80
2022-10-19T20:35:07.288Z,9.70
2022-10-19T20:37:33.728Z,5.70
2022-10-19T20:40:01.464Z,8.85
2022-10-19T20:42:28.814Z,10.05
2022-10-19T20:44:56.190Z,8.38
2022-10-19T20:47:22.609Z,13.63
2022-10-19T20:49:48.960Z,8.52
2022-10-19T20:52:15.406Z,9.20
2022-10-19T20:54:41.835Z,10.27
2022-10-19T20:57:08.220Z,11.13
2022-10-19T20:59:34.634Z,9.45
2022-10-19T21:02:01.094Z,8.43
2022-10-19T21:04:27.581Z,11.35
2022-10-19T21:06:54.035Z,9.75
2022-10-19T21:09:22.497Z,9.57
2022-10-19T21:11:50.670Z,8.63
2022-10-19T21:14:25.382Z,10.68
2022-10-19T21:16:56.469Z,10.43
2022-10-19T21:19:25.232Z,9.00
2022-10-19T21:21:57.035Z,9.85
2022-10-19T21:24:29.564Z,11.07
2022-10-19T21:26:56.019Z,9.68
2022-10-19T21:29:22.461Z,8.18
2022-10-19T21:31:50.090Z,7.07
2022-10-19T21:34:19.513Z,13.07
2022-10-19T21:36:46.124Z,8.60
2022-10-19T21:39:12.629Z,13.20
2022-10-19T21:41:39.184Z,6.25
2022-10-19T21:44:05.572Z,8.63
2022-10-19T21:46:32.073Z,7.45
2022-10-19T21:48:58.502Z,7.80
2022-10-19T21:51:33.270Z,6.68
2022-10-19T21:54:00.416Z,7.63
2022-10-19T21:56:27.257Z,8.00
2022-10-19T21:58:54.263Z,9.63
2022-10-19T22:01:23.143Z,9.05
2022-10-19T22:03:49.853Z,11.75
2022-10-19T22:06:16.360Z,8.73
2022-10-19T22:08:46.616Z,10.57
2022-10-19T22:11:14.136Z,11.73
2022-10-19T22:13:41.218Z,7.55
2022-10-19T22:16:17.303Z,8.25
2022-10-19T22:18:44.296Z,6.68
2022-10-19T22:21:14.427Z,8.27
2022-10-19T22:23:41.739Z,7.25
2022-10-19T22:26:17.403Z,9.10
2022-10-19T22:28:44.733Z,10.32
2022-10-19T22:31:11.969Z,7.15
2022-10-19T22:33:39.434Z,9.07
2022-10-19T22:36:08.341Z,8.13
2022-10-19T22:38:35.715Z,8.20
2022-10-19T22:41:02.118Z,7.60
2022-10-19T22:43:28.721Z,8.15
2022-10-19T22:45:55.094Z,11.13
2022-10-19T22:48:21.504Z,9.07
2022-10-19T22:50:47.931Z,7.55
2022-10-19T22:53:14.397Z,10.35
2022-10-19T22:55:40.792Z,7.60
2022-10-19T22:58:08.462Z,9.38
2022-10-19T23:00:34.889Z,6.30
2022-10-19T23:03:01.329Z,8.23
2022-10-19T23:05:27.970Z,8.18
2022-10-19T23:07:54.392Z,12.23
2022-10-19T23:10:20.897Z,7.90
2022-10-19T23:12:52.002Z,11.60
2022-10-19T23:15:19.422Z,10.38
2022-10-19T23:17:45.972Z,9.35
2022-10-19T23:20:12.900Z,7.63
2022-10-19T23:22:39.958Z,10.63
2022-10-19T23:25:07.223Z,11.18
2022-10-19T23:27:34.342Z,10.43
2022-10-19T23:30:01.625Z,10.30
2022-10-19T23:32:28.040Z,10.77
2022-10-19T23:34:54.414Z,10.27
2022-10-19T23:37:20.820Z,9.02
2022-10-19T23:39:47.233Z,11.13
2022-10-19T23:42:13.616Z,7.20
2022-10-19T23:44:40.002Z,7.43
2022-10-19T23:47:06.389Z,9.13
2022-10-19T23:49:32.753Z,8.13
2022-10-19T23:51:59.125Z,9.18
2022-10-19T23:54:25.580Z,8.45
2022-10-19T23:56:52.006Z,9.85
2022-10-19T23:59:18.356Z,11.20
